createdAt,value
2023-06-19T00:00:37.552Z,12.63
2023-06-19T00:04:39.560Z,9.85
2023-06-19T00:08:44.218Z,7.82
2023-06-19T00:12:46.209Z,8.80
2023-06-19T00:16:48.368Z,10.98
2023-06-19T00:20:50.440Z,9.15
2023-06-19T00:24:53.164Z,13.35
2023-06-19T00:28:55.189Z,11.00
2023-06-19T00:32:58.731Z,9.68
2023-06-19T00:37:00.921Z,11.25
2023-06-19T00:41:02.821Z,9.18
2023-06-19T00:45:05.233Z,12.27
2023-06-19T00:49:08.655Z,9.38
2023-06-19T00:53:11.462Z,9.60
2023-06-19T00:57:13.484Z,8.07
2023-06-19T01:01:16.588Z,12.15
2023-06-19T01:05:20.464Z,8.63
2023-06-19T01:09:26.997Z,9.00
2023-06-19T01:13:31.771Z,9.82
2023-06-19T01:17:36.694Z,12.05
2023-06-19T01:21:39.408Z,9.50
2023-06-19T01:25:41.512Z,11.48
2023-06-19T01:29:43.698Z,9.88
2023-06-19T01:33:47.209Z,11.10
2023-06-19T01:37:53.623Z,10.27
2023-06-19T01:41:56.421Z,12.00
2023-06-19T01:45:59.554Z,11.40
2023-06-19T01:50:03.294Z,10.05
2023-06-19T01:54:05.531Z,10.40
2023-06-19T01:58:08.163Z,8.63
2023-06-19T02:02:11.477Z,11.50
2023-06-19T02:06:13.569Z,9.55
2023-06-19T02:10:15.642Z,12.77
2023-06-19T02:14:18.332Z,8.88
2023-06-19T02:18:20.364Z,11.90
2023-06-19T02:22:22.300Z,11.35
2023-06-19T02:26:24.431Z,8.68
2023-06-19T02:30:26.689Z,10.68
2023-06-19T02:34:29.009Z,11.10
2023-06-19T02:38:31.262Z,9.63
2023-06-19T02:42:33.852Z,9.02
2023-06-19T02:46:37.011Z,9.57
2023-06-19T02:50:39.286Z,9.77
2023-06-19T02:54:41.408Z,9.65
2023-06-19T02:58:43.365Z,10.90
2023-06-19T03:02:45.608Z,9.13
2023-06-19T03:06:47.845Z,11.05
2023-06-19T03:10:49.969Z,9.30
2023-06-19T03:14:51.850Z,11.18
2023-06-19T03:18:53.887Z,10.45
2023-06-19T03:22:58.389Z,14.52
2023-06-19T03:27:01.754Z,9.98
2023-06-19T03:31:04.100Z,10.52
2023-06-19T03:35:06.570Z,14.07
2023-06-19T03:39:11.953Z,9.65
2023-06-19T03:43:14.926Z,10.35
2023-06-19T03:47:18.982Z,9.90
2023-06-19T03:51:21.052Z,11.38
2023-06-19T03:55:23.106Z,13.60
2023-06-19T03:59:25.718Z,18.05
2023-06-19T04:03:28.879Z,10.07
2023-06-19T04:07:32.714Z,12.27
2023-06-19T04:11:34.722Z,12.02
2023-06-19T04:15:38.623Z,15.40
2023-06-19T04:19:40.820Z,17.05
2023-06-19T04:23:42.768Z,10.95
2023-06-19T04:27:45.911Z,13.82
2023-06-19T04:31:48.095Z,14.30
2023-06-19T04:35:50.183Z,11.00
2023-06-19T04:39:52.314Z,13.30
2023-06-19T04:43:54.283Z,11.95
2023-06-19T04:47:56.300Z,13.50
2023-06-19T04:51:58.808Z,14.35
2023-06-19T04:56:02.667Z,14.15
2023-06-19T05:00:11.221Z,12.27
2023-06-19T05:04:13.444Z,18.50
2023-06-19T05:08:15.528Z,7.43
2023-06-19T05:12:17.594Z,7.10
2023-06-19T05:16:20.950Z,5.10
2023-06-19T05:20:23.364Z,5.80
2023-06-19T05:24:25.616Z,4.05
2023-06-19T05:28:27.870Z,4.00
2023-06-19T05:32:29.930Z,3.70
2023-06-19T05:36:32.072Z,3.60
2023-06-19T05:40:34.242Z,3.60
2023-06-19T05:44:36.634Z,3.50
2023-06-19T05:48:38.840Z,3.50
2023-06-19T05:52:44.248Z,4.05
2023-06-19T05:56:46.321Z,4.85
2023-06-19T06:00:48.518Z,3.45
2023-06-19T06:04:50.686Z,4.60
2023-06-19T06:08:52.897Z,3.25
2023-06-19T06:12:54.921Z,3.20
2023-06-19T06:16:57.071Z,3.63
2023-06-19T06:21:00.243Z,3.35
2023-06-19T06:25:02.344Z,3.97
2023-06-19T06:29:04.383Z,3.90
2023-06-19T06:33:06.475Z,3.60
2023-06-19T06:37:08.560Z,3.38
2023-06-19T06:41:10.678Z,5.07
2023-06-19T06:45:12.839Z,5.30
2023-06-19T06:49:17.368Z,3.90
2023-06-19T06:53:19.491Z,4.95
2023-06-19T06:57:21.662Z,5.65
2023-06-19T07:01:23.766Z,6.53
2023-06-19T07:05:26.056Z,7.60
2023-06-19T07:09:28.072Z,8.13
2023-06-19T07:13:30.158Z,9.43
2023-06-19T07:17:32.148Z,7.35
2023-06-19T07:21:34.190Z,7.75
2023-06-19T07:25:36.338Z,9.45
2023-06-19T07:29:38.847Z,8.15
2023-06-19T07:33:40.931Z,7.03
2023-06-19T07:37:43.115Z,6.60
2023-06-19T07:41:46.891Z,8.88
2023-06-19T07:45:49.482Z,7.35
2023-06-19T07:49:51.578Z,5.63
2023-06-19T07:53:53.689Z,6.80
2023-06-19T07:57:57.915Z,5.35
2023-06-19T08:01:59.904Z,5.55
2023-06-19T08:06:01.924Z,3.95
2023-06-19T08:10:13.296Z,4.45
2023-06-19T08:14:16.366Z,5.30
2023-06-19T08:18:18.599Z,6.32
2023-06-19T08:22:20.908Z,7.97
2023-06-19T08:26:23.525Z,6.13
2023-06-19T08:30:26.040Z,4.55
2023-06-19T08:34:28.792Z,7.15
2023-06-19T08:38:31.059Z,5.22
2023-06-19T08:42:33.368Z,5.43
2023-06-19T08:46:38.106Z,5.30
2023-06-19T08:50:40.153Z,4.75
2023-06-19T08:54:45.470Z,5.80
2023-06-19T08:58:48.026Z,6.28
2023-06-19T09:03:01.056Z,5.70
2023-06-19T09:07:14.809Z,4.88
2023-06-19T09:11:23.051Z,5.70
2023-06-19T09:15:27.733Z,5.78
2023-06-19T09:19:30.026Z,4.80
2023-06-19T09:23:32.038Z,4.20
2023-06-19T09:27:38.154Z,5.03
2023-06-19T09:31:46.033Z,4.32
2023-06-19T09:35:52.229Z,4.20
2023-06-19T09:40:01.996Z,5.93
2023-06-19T09:44:13.501Z,5.50
2023-06-19T09:48:18.595Z,5.78
2023-06-19T09:52:26.405Z,5.50
2023-06-19T09:56:39.143Z,8.93
2023-06-19T10:00:41.781Z,4.30
2023-06-19T10:04:46.533Z,6.60
2023-06-19T10:08:49.147Z,4.53
2023-06-19T10:12:51.291Z,4.30
2023-06-19T10:16:53.327Z,6.32
2023-06-19T10:20:59.342Z,4.28
2023-06-19T10:25:01.576Z,5.90
2023-06-19T10:29:15.559Z,4.50
2023-06-19T10:33:17.527Z,7.25
2023-06-19T10:37:19.679Z,6.00
2023-06-19T10:41:23.728Z,3.88
2023-06-19T10:45:29.677Z,8.00
2023-06-19T10:49:33.258Z,4.63
2023-06-19T10:53:35.237Z,3.78
2023-06-19T10:57:37.490Z,3.08
2023-06-19T11:01:45.485Z,3.22
2023-06-19T11:05:49.170Z,3.38
2023-06-19T11:09:51.321Z,4.63
2023-06-19T11:13:53.347Z,3.85
2023-06-19T11:17:55.316Z,3.90
2023-06-19T11:21:58.610Z,4.47
2023-06-19T11:26:07.363Z,5.53
2023-06-19T11:30:10.434Z,2.35
2023-06-19T11:34:12.833Z,2.72
2023-06-19T11:38:23.543Z,3.10
2023-06-19T11:42:26.467Z,2.60
2023-06-19T11:46:32.756Z,2.20
2023-06-19T11:50:34.773Z,3.28
2023-06-19T11:54:36.948Z,3.47
2023-06-19T11:58:38.873Z,3.58
2023-06-19T12:02:41.014Z,2.53
2023-06-19T12:06:43.261Z,3.35
2023-06-19T12:10:45.274Z,2.75
2023-06-19T12:14:47.476Z,2.30
2023-06-19T12:18:49.553Z,4.20
2023-06-19T12:22:51.431Z,4.75
2023-06-19T12:26:53.627Z,5.18
2023-06-19T12:30:57.201Z,3.78
2023-06-19T12:34:59.209Z,4.97
2023-06-19T12:39:01.817Z,4.03
2023-06-19T12:43:04.099Z,3.90
2023-06-19T12:47:06.993Z,3.28
2023-06-19T12:51:11.563Z,4.80
2023-06-19T12:55:13.608Z,4.05
2023-06-19T12:59:15.734Z,3.80
2023-06-19T13:03:17.821Z,3.67
2023-06-19T13:07:20.353Z,3.42
2023-06-19T13:11:22.395Z,3.45
2023-06-19T13:15:24.262Z,4.03
2023-06-19T13:19:26.131Z,7.40
2023-06-19T13:23:27.976Z,5.78
2023-06-19T13:27:30.100Z,4.05
2023-06-19T13:31:32.014Z,5.85
2023-06-19T13:35:34.587Z,3.55
2023-06-19T13:39:36.480Z,4.63
2023-06-19T13:43:40.400Z,3.50
2023-06-19T13:47:42.422Z,4.25
2023-06-19T13:51:45.369Z,6.10
2023-06-19T13:55:48.041Z,4.55
2023-06-19T13:59:50.502Z,3.35
2023-06-19T14:03:52.667Z,3.53
2023-06-19T14:07:56.005Z,3.72
2023-06-19T14:11:58.129Z,4.32
2023-06-19T14:16:00.066Z,3.15
2023-06-19T14:20:01.945Z,3.80
2023-06-19T14:24:04.314Z,3.15
2023-06-19T14:28:06.451Z,4.18
2023-06-19T14:32:08.477Z,7.55
2023-06-19T14:36:10.391Z,3.08
2023-06-19T14:40:12.529Z,5.80
2023-06-19T14:44:14.803Z,3.33
2023-06-19T14:48:16.934Z,4.30
2023-06-19T14:52:21.012Z,3.53
2023-06-19T14:56:23.636Z,3.25
2023-06-19T15:00:25.976Z,4.28
2023-06-19T15:04:28.279Z,3.47
2023-06-19T15:08:32.393Z,5.47
2023-06-19T15:12:35.740Z,4.00
2023-06-19T15:16:38.150Z,4.00
2023-06-19T15:20:40.612Z,2.97
2023-06-19T15:24:43.005Z,3.83
2023-06-19T15:28:45.333Z,3.72
2023-06-19T15:32:47.462Z,3.67
2023-06-19T15:36:49.363Z,3.38
2023-06-19T15:40:51.401Z,5.57
2023-06-19T15:44:53.653Z,3.38
2023-06-19T15:48:56.073Z,3.90
2023-06-19T15:52:58.000Z,5.47
2023-06-19T15:57:00.242Z,3.50
2023-06-19T16:01:02.559Z,7.25
2023-06-19T16:05:05.722Z,4.57
2023-06-19T16:09:08.545Z,6.20
2023-06-19T16:13:12.148Z,6.53
2023-06-19T16:17:14.076Z,5.68
2023-06-19T16:21:18.164Z,3.40
2023-06-19T16:25:20.534Z,3.60
2023-06-19T16:29:22.682Z,5.85
2023-06-19T16:33:24.879Z,3.83
2023-06-19T16:37:26.926Z,8.32
2023-06-19T16:41:32.886Z,11.52
2023-06-19T16:45:37.272Z,11.07
2023-06-19T16:49:39.289Z,6.82
2023-06-19T16:53:41.351Z,3.78
2023-06-19T16:57:43.397Z,6.63
2023-06-19T17:01:46.631Z,5.53
2023-06-19T17:05:48.989Z,22.55
2023-06-19T17:09:51.026Z,15.05
2023-06-19T17:13:53.218Z,8.90
2023-06-19T17:17:55.151Z,5.40
2023-06-19T17:21:57.043Z,10.95
2023-06-19T17:25:59.080Z,4.97
2023-06-19T17:30:02.530Z,4.57
2023-06-19T17:34:05.685Z,10.65
2023-06-19T17:38:07.735Z,10.15
2023-06-19T17:42:11.008Z,6.00
2023-06-19T17:46:13.290Z,4.53
2023-06-19T17:50:15.472Z,7.07
2023-06-19T17:54:20.769Z,4.72
2023-06-19T17:58:24.666Z,5.47
2023-06-19T18:02:26.868Z,4.50
2023-06-19T18:06:29.183Z,5.18
2023-06-19T18:10:31.266Z,4.82
2023-06-19T18:14:33.132Z,8.38
2023-06-19T18:18:35.019Z,6.50
2023-06-19T18:22:39.122Z,6.60
2023-06-19T18:26:41.139Z,5.53
2023-06-19T18:30:43.255Z,4.60
2023-06-19T18:34:45.510Z,6.72
2023-06-19T18:38:47.970Z,4.57
2023-06-19T18:42:49.949Z,8.18
2023-06-19T18:46:52.217Z,6.40
2023-06-19T18:50:54.163Z,4.38
2023-06-19T18:54:56.256Z,6.72
2023-06-19T18:58:58.211Z,4.53
2023-06-19T19:03:00.402Z,4.32
2023-06-19T19:07:02.578Z,5.65
2023-06-19T19:11:04.704Z,4.68
2023-06-19T19:15:07.586Z,4.63
2023-06-19T19:19:09.486Z,5.30
2023-06-19T19:23:11.420Z,7.40
2023-06-19T19:27:13.438Z,6.55
2023-06-19T19:31:15.489Z,6.68
2023-06-19T19:35:17.622Z,10.00
2023-06-19T19:39:19.580Z,7.82
2023-06-19T19:43:21.657Z,5.15
2023-06-19T19:47:23.639Z,5.78
2023-06-19T19:51:25.704Z,6.00
2023-06-19T19:55:27.709Z,5.65
2023-06-19T19:59:30.140Z,5.30
2023-06-19T20:03:33.200Z,5.65
2023-06-19T20:07:35.422Z,6.00
2023-06-19T20:11:37.822Z,10.00
2023-06-19T20:15:39.859Z,5.15
2023-06-19T20:19:41.900Z,5.18
2023-06-19T20:23:43.915Z,5.25
2023-06-19T20:27:58.891Z,8.30
2023-06-19T20:32:08.236Z,7.65
2023-06-19T20:36:10.319Z,6.53
2023-06-19T20:40:12.488Z,6.45
2023-06-19T20:44:14.821Z,7.13
2023-06-19T20:48:16.897Z,5.90
2023-06-19T20:52:18.905Z,6.78
2023-06-19T20:56:20.995Z,5.75
2023-06-19T21:00:23.762Z,5.55
2023-06-19T21:04:26.129Z,6.63
2023-06-19T21:08:31.078Z,7.25
2023-06-19T21:12:33.411Z,6.30
2023-06-19T21:16:35.451Z,7.40
2023-06-19T21:20:37.376Z,6.47
2023-06-19T21:24:39.930Z,7.63
2023-06-19T21:28:41.912Z,8.73
2023-06-19T21:32:44.427Z,13.90
2023-06-19T21:36:46.360Z,6.60
2023-06-19T21:40:48.394Z,7.95
2023-06-19T21:44:50.430Z,8.48
2023-06-19T21:48:52.456Z,9.70
2023-06-19T21:52:54.638Z,7.22
2023-06-19T21:56:56.910Z,5.70
2023-06-19T22:00:59.071Z,6.55
2023-06-19T22:05:01.407Z,6.65
2023-06-19T22:09:03.692Z,10.07
2023-06-19T22:13:06.008Z,7.97
2023-06-19T22:17:08.773Z,6.18
2023-06-19T22:21:11.569Z,7.32
2023-06-19T22:25:14.032Z,8.32
2023-06-19T22:29:16.121Z,9.13
2023-06-19T22:33:18.162Z,7.75
2023-06-19T22:37:20.228Z,7.28
2023-06-19T22:41:22.208Z,7.68
2023-06-19T22:45:24.535Z,8.93
2023-06-19T22:49:30.261Z,7.45
2023-06-19T22:53:32.472Z,10.15
2023-06-19T22:57:35.606Z,6.72
2023-06-19T23:01:38.233Z,10.00
2023-06-19T23:05:40.347Z,9.40
2023-06-19T23:09:42.629Z,7.28
2023-06-19T23:13:44.663Z,7.50
2023-06-19T23:17:46.849Z,8.20
2023-06-19T23:21:49.048Z,8.60
2023-06-19T23:25:51.421Z,8.43
2023-06-19T23:29:53.473Z,8.20
2023-06-19T23:34:00.193Z,7.35
2023-06-19T23:38:02.420Z,11.10
2023-06-19T23:42:04.641Z,9.00
2023-06-19T23:46:09.823Z,9.25
2023-06-19T23:50:12.139Z,8.15
2023-06-19T23:54:14.222Z,7.55
2023-06-19T23:58:16.229Z,7.85
